createdAt,value
2019-03-23T00:00:53.772Z,65.40
2019-03-23T00:03:22.170Z,65.70
2019-03-23T00:05:50.674Z,65.70
2019-03-23T00:08:19.519Z,66.00
2019-03-23T00:10:47.923Z,65.80
2019-03-23T00:13:16.349Z,65.40
2019-03-23T00:15:45.888Z,66.00
2019-03-23T00:18:14.532Z,66.50
2019-03-23T00:20:43.981Z,68.20
2019-03-23T00:23:12.326Z,68.60
2019-03-23T00:25:40.625Z,69.00
2019-03-23T00:28:09.214Z,69.40
2019-03-23T00:30:37.669Z,70.10
2019-03-23T00:33:07.034Z,70.50
2019-03-23T00:35:36.237Z,70.60
2019-03-23T00:38:04.608Z,71.00
2019-03-23T00:40:32.984Z,70.80
2019-03-23T00:43:01.559Z,71.00
2019-03-23T00:45:30.354Z,71.40
2019-03-23T00:47:58.844Z,71.20
2019-03-23T00:50:27.558Z,71.40
2019-03-23T00:52:55.847Z,71.00
2019-03-23T00:55:24.204Z,70.90
2019-03-23T00:57:52.531Z,70.60
2019-03-23T01:00:20.772Z,70.20
2019-03-23T01:02:49.079Z,69.20
2019-03-23T01:05:17.395Z,69.40
2019-03-23T01:07:45.655Z,68.00
2019-03-23T01:10:14.068Z,67.80
2019-03-23T01:12:42.529Z,67.80
2019-03-23T01:15:11.177Z,67.50
2019-03-23T01:17:39.697Z,67.90
2019-03-23T01:20:10.071Z,68.60
2019-03-23T01:22:38.742Z,68.80
2019-03-23T01:25:07.514Z,68.80
2019-03-23T01:27:37.463Z,68.40
2019-03-23T01:30:07.441Z,69.10
2019-03-23T01:32:35.790Z,69.40
2019-03-23T01:35:04.824Z,69.40
2019-03-23T01:37:33.371Z,69.50
2019-03-23T01:40:01.752Z,70.20
2019-03-23T01:42:30.335Z,70.70
2019-03-23T01:44:58.554Z,71.10
2019-03-23T01:47:27.031Z,71.70
2019-03-23T01:49:55.475Z,73.40
2019-03-23T01:52:26.677Z,72.20
2019-03-23T01:54:55.293Z,72.70
2019-03-23T01:57:23.779Z,73.00
2019-03-23T01:59:52.250Z,73.30
2019-03-23T02:02:20.805Z,73.40
2019-03-23T02:04:51.519Z,73.00
2019-03-23T02:07:19.855Z,73.00
2019-03-23T02:09:48.239Z,73.20
2019-03-23T02:12:16.627Z,73.40
2019-03-23T02:14:44.986Z,74.60
2019-03-23T02:17:13.502Z,73.60
2019-03-23T02:19:42.514Z,74.00
2019-03-23T02:22:11.213Z,74.30
2019-03-23T02:24:39.519Z,74.20
2019-03-23T02:27:08.040Z,75.20
2019-03-23T02:29:36.349Z,74.40
2019-03-23T02:32:04.693Z,74.70
2019-03-23T02:34:33.165Z,74.40
2019-03-23T02:37:01.548Z,74.50
2019-03-23T02:39:30.123Z,74.60
2019-03-23T02:41:58.664Z,74.10
2019-03-23T02:44:27.089Z,73.60
2019-03-23T02:46:55.491Z,74.20
2019-03-23T02:49:23.934Z,74.50
2019-03-23T02:51:52.294Z,74.90
2019-03-23T02:54:22.176Z,74.70
2019-03-23T02:56:50.696Z,73.50
2019-03-23T02:59:19.102Z,72.30
2019-03-23T03:01:47.493Z,71.50
2019-03-23T03:04:16.133Z,72.00
2019-03-23T03:06:44.659Z,70.70
2019-03-23T03:09:13.050Z,70.50
2019-03-23T03:11:42.423Z,70.40
2019-03-23T03:14:10.697Z,70.50
2019-03-23T03:16:38.976Z,70.60
2019-03-23T03:19:07.354Z,71.50
2019-03-23T03:21:35.688Z,71.60
2019-03-23T03:24:04.095Z,71.00
2019-03-23T03:26:32.530Z,71.20
2019-03-23T03:29:00.903Z,71.30
2019-03-23T03:31:29.499Z,71.40
2019-03-23T03:34:03.728Z,71.60
2019-03-23T03:36:32.424Z,71.60
2019-03-23T03:39:00.853Z,72.00
2019-03-23T03:41:29.212Z,72.10
2019-03-23T03:43:57.631Z,72.20
2019-03-23T03:46:26.125Z,72.50
2019-03-23T03:48:54.666Z,72.60
2019-03-23T03:51:23.935Z,72.90
2019-03-23T03:53:52.911Z,73.40
2019-03-23T03:56:21.619Z,73.70
2019-03-23T03:58:49.989Z,73.70
2019-03-23T04:01:18.391Z,73.50
2019-03-23T04:03:47.025Z,73.70
2019-03-23T04:06:15.404Z,74.40
2019-03-23T04:08:43.793Z,74.70
2019-03-23T04:11:12.140Z,74.80
2019-03-23T04:13:40.462Z,75.00
2019-03-23T04:16:09.281Z,75.20
2019-03-23T04:18:37.732Z,75.60
2019-03-23T04:21:06.044Z,75.80
2019-03-23T04:23:34.522Z,75.60
2019-03-23T04:26:02.840Z,75.10
2019-03-23T04:28:31.111Z,74.70
2019-03-23T04:30:59.573Z,75.00
2019-03-23T04:33:27.796Z,74.80
2019-03-23T04:35:57.766Z,75.00
2019-03-23T04:38:26.188Z,75.10
2019-03-23T04:40:55.231Z,75.50
2019-03-23T04:43:23.649Z,75.30
2019-03-23T04:45:52.011Z,75.50
2019-03-23T04:48:20.302Z,76.00
2019-03-23T04:50:48.682Z,76.00
2019-03-23T04:53:17.243Z,76.00
2019-03-23T04:55:45.561Z,76.10
2019-03-23T04:58:14.846Z,76.30
2019-03-23T05:00:43.239Z,76.70
2019-03-23T05:03:11.569Z,76.30
2019-03-23T05:05:39.951Z,76.10
2019-03-23T05:08:09.461Z,76.10
2019-03-23T05:10:37.897Z,76.10
2019-03-23T05:13:07.267Z,76.10
2019-03-23T05:15:35.674Z,76.30
2019-03-23T05:18:04.073Z,76.60
2019-03-23T05:20:32.352Z,76.80
2019-03-23T05:23:00.733Z,76.40
2019-03-23T05:25:29.345Z,76.10
2019-03-23T05:27:57.736Z,75.80
2019-03-23T05:30:26.255Z,75.50
2019-03-23T05:32:54.928Z,75.60
2019-03-23T05:35:23.290Z,75.60
2019-03-23T05:37:51.563Z,75.80
2019-03-23T05:40:20.849Z,75.90
2019-03-23T05:42:49.260Z,76.00
2019-03-23T05:45:17.484Z,76.10
2019-03-23T05:47:45.790Z,76.40
2019-03-23T05:50:14.181Z,76.40
2019-03-23T05:52:42.668Z,76.80
2019-03-23T05:55:11.218Z,76.70
2019-03-23T05:57:39.835Z,77.00
2019-03-23T06:00:12.183Z,77.00
2019-03-23T06:02:40.456Z,76.80
2019-03-23T06:05:08.915Z,77.00
2019-03-23T06:07:39.634Z,76.70
2019-03-23T06:10:08.060Z,76.30
2019-03-23T06:12:36.586Z,76.30
2019-03-23T06:15:05.829Z,76.50
2019-03-23T06:17:34.128Z,76.70
2019-03-23T06:20:04.800Z,77.30
2019-03-23T06:22:34.131Z,77.00
2019-03-23T06:25:02.646Z,77.60
2019-03-23T06:27:32.055Z,77.60
2019-03-23T06:30:00.409Z,76.90
2019-03-23T06:32:28.667Z,77.50
2019-03-23T06:34:56.966Z,77.70
2019-03-23T06:37:25.337Z,77.70
2019-03-23T06:39:58.251Z,77.20
2019-03-23T06:42:26.792Z,77.00
2019-03-23T06:44:55.587Z,77.30
2019-03-23T06:47:23.896Z,77.80
2019-03-23T06:49:52.354Z,77.60
2019-03-23T06:52:20.691Z,77.70
2019-03-23T06:54:49.309Z,77.60
2019-03-23T06:57:18.566Z,76.90
2019-03-23T06:59:47.152Z,75.90
2019-03-23T07:02:15.442Z,75.70
2019-03-23T07:04:43.930Z,76.10
2019-03-23T07:07:15.288Z,75.40
2019-03-23T07:09:43.393Z,74.40
2019-03-23T07:12:11.926Z,73.60
2019-03-23T07:14:40.466Z,73.30
2019-03-23T07:17:39.960Z,73.60
2019-03-23T07:20:09.977Z,72.40
2019-03-23T07:22:38.464Z,72.70
2019-03-23T07:25:08.687Z,71.90
2019-03-23T07:27:37.204Z,71.10
2019-03-23T07:30:06.553Z,70.40
2019-03-23T07:32:34.864Z,70.00
2019-03-23T07:35:03.328Z,69.40
2019-03-23T07:37:31.675Z,69.30
2019-03-23T07:40:00.334Z,68.90
2019-03-23T07:42:28.789Z,68.20
2019-03-23T07:44:57.984Z,68.10
2019-03-23T07:47:26.619Z,68.10
2019-03-23T07:49:55.100Z,67.80
2019-03-23T07:52:23.462Z,67.30
2019-03-23T07:54:51.947Z,66.80
2019-03-23T07:57:22.328Z,66.30
2019-03-23T07:59:50.951Z,64.80
2019-03-23T08:02:19.595Z,64.50
2019-03-23T08:04:48.459Z,64.40
2019-03-23T08:07:18.333Z,63.90
2019-03-23T08:09:48.286Z,63.20
2019-03-23T08:12:16.754Z,62.60
2019-03-23T08:14:45.151Z,62.50
2019-03-23T08:17:13.598Z,62.00
2019-03-23T08:19:42.183Z,61.80
2019-03-23T08:22:12.329Z,62.50
2019-03-23T08:24:41.743Z,63.10
2019-03-23T08:27:10.186Z,62.50
2019-03-23T08:29:38.620Z,62.30
2019-03-23T08:32:09.542Z,61.80
2019-03-23T08:34:37.863Z,61.80
2019-03-23T08:37:06.257Z,61.10
2019-03-23T08:39:34.657Z,60.90
2019-03-23T08:42:02.943Z,60.10
2019-03-23T08:44:31.679Z,60.00
2019-03-23T08:47:00.367Z,60.40
2019-03-23T08:49:28.740Z,60.50
2019-03-23T08:51:57.790Z,60.50
2019-03-23T08:54:26.450Z,60.00
2019-03-23T08:56:54.836Z,59.70
2019-03-23T08:59:23.379Z,59.80
2019-03-23T09:01:52.076Z,59.90
2019-03-23T09:04:20.665Z,59.50
2019-03-23T09:06:54.200Z,59.30
2019-03-23T09:09:22.909Z,59.40
2019-03-23T09:11:51.437Z,58.60
2019-03-23T09:14:20.128Z,58.30
2019-03-23T09:16:48.583Z,58.20
2019-03-23T09:19:17.308Z,57.80
2019-03-23T09:21:46.001Z,57.60
2019-03-23T09:24:14.599Z,57.70
2019-03-23T09:26:43.279Z,57.20
2019-03-23T09:29:11.980Z,57.30
2019-03-23T09:31:44.426Z,57.80
2019-03-23T09:34:13.905Z,57.70
2019-03-23T09:36:42.586Z,57.60
2019-03-23T09:39:11.386Z,58.30
2019-03-23T09:41:40.112Z,58.80
2019-03-23T09:44:08.709Z,59.00
2019-03-23T09:46:37.112Z,58.60
2019-03-23T09:49:06.999Z,58.20
2019-03-23T09:51:39.732Z,58.30
2019-03-23T09:54:08.784Z,58.20
2019-03-23T09:56:37.284Z,57.20
2019-03-23T09:59:06.445Z,57.00
2019-03-23T10:01:35.505Z,56.70
2019-03-23T10:04:04.169Z,56.70
2019-03-23T10:06:32.708Z,56.50
2019-03-23T10:09:01.458Z,56.30
2019-03-23T10:11:31.680Z,56.20
2019-03-23T10:14:00.343Z,56.50
2019-03-23T10:16:29.134Z,55.10
2019-03-23T10:18:57.663Z,54.90
2019-03-23T10:21:26.159Z,54.80
2019-03-23T10:23:55.071Z,55.20
2019-03-23T10:26:23.764Z,54.70
2019-03-23T10:28:52.363Z,54.00
2019-03-23T10:31:20.939Z,53.40
2019-03-23T10:33:49.503Z,54.10
2019-03-23T10:36:18.136Z,52.80
2019-03-23T10:38:46.640Z,52.70
2019-03-23T10:41:15.053Z,52.50
2019-03-23T10:43:43.542Z,52.30
2019-03-23T10:46:12.084Z,52.20
2019-03-23T10:48:40.632Z,51.90
2019-03-23T10:51:09.188Z,51.60
2019-03-23T10:53:37.866Z,51.30
2019-03-23T10:56:06.316Z,51.00
2019-03-23T10:58:35.037Z,51.20
2019-03-23T11:01:03.936Z,51.00
2019-03-23T11:03:32.489Z,51.70
2019-03-23T11:06:00.978Z,51.20
2019-03-23T11:08:29.488Z,50.70
2019-03-23T11:10:58.130Z,50.60
2019-03-23T11:13:26.915Z,48.10
2019-03-23T11:15:55.571Z,45.10
2019-03-23T11:18:24.215Z,42.70
2019-03-23T11:20:52.666Z,40.50
2019-03-23T11:23:21.515Z,40.00
2019-03-23T11:25:50.092Z,39.10
2019-03-23T11:28:18.775Z,37.50
2019-03-23T11:30:47.359Z,36.30
2019-03-23T11:33:15.948Z,36.50
2019-03-23T11:35:44.478Z,37.10
2019-03-23T11:38:12.980Z,39.10
2019-03-23T11:40:52.054Z,39.30
2019-03-23T11:43:11.859Z,39.70
2019-03-23T11:45:42.618Z,38.80
2019-03-23T11:48:11.031Z,36.70
2019-03-23T11:50:39.471Z,36.50
2019-03-23T11:53:08.535Z,35.70
2019-03-23T11:55:37.027Z,36.70
2019-03-23T11:58:05.412Z,36.40
2019-03-23T12:00:33.972Z,35.40
2019-03-23T12:03:02.311Z,36.10
2019-03-23T12:05:30.748Z,35.30
2019-03-23T12:08:00.493Z,35.30
2019-03-23T12:10:29.165Z,36.10
2019-03-23T12:12:57.665Z,37.40
2019-03-23T12:15:26.114Z,39.20
2019-03-23T12:17:54.612Z,39.10
2019-03-23T12:20:23.489Z,38.80
2019-03-23T12:22:52.159Z,38.60
2019-03-23T12:25:20.543Z,37.40
2019-03-23T12:27:49.072Z,35.80
2019-03-23T12:30:17.988Z,34.90
2019-03-23T12:32:46.426Z,34.60
2019-03-23T12:35:14.932Z,35.10
2019-03-23T12:37:43.588Z,36.30
2019-03-23T12:40:12.093Z,36.50
2019-03-23T12:42:40.623Z,35.30
2019-03-23T12:45:10.376Z,35.50
2019-03-23T12:47:38.926Z,36.70
2019-03-23T12:50:07.585Z,36.90
2019-03-23T12:52:38.704Z,38.80
2019-03-23T12:55:07.649Z,38.70
2019-03-23T12:57:36.120Z,37.40
2019-03-23T13:00:06.185Z,36.70
2019-03-23T13:02:34.731Z,35.40
2019-03-23T13:05:04.192Z,35.70
2019-03-23T13:07:32.755Z,35.60
2019-03-23T13:10:02.455Z,34.60
2019-03-23T13:12:31.006Z,33.50
2019-03-23T13:14:59.692Z,34.10
2019-03-23T13:17:28.332Z,34.60
2019-03-23T13:19:56.997Z,34.50
2019-03-23T13:22:25.680Z,35.20
2019-03-23T13:24:55.288Z,35.50
2019-03-23T13:27:24.308Z,36.10
2019-03-23T13:29:56.859Z,36.40
2019-03-23T13:32:25.994Z,37.30
2019-03-23T13:34:55.592Z,37.90
2019-03-23T13:37:24.249Z,38.00
2019-03-23T13:39:52.766Z,37.40
2019-03-23T13:42:21.250Z,35.80
2019-03-23T13:44:50.410Z,34.80
2019-03-23T13:47:21.976Z,32.20
2019-03-23T13:49:50.607Z,32.40
2019-03-23T13:52:19.212Z,33.30
2019-03-23T13:54:47.761Z,34.50
2019-03-23T13:57:16.450Z,36.50
2019-03-23T13:59:44.884Z,37.30
2019-03-23T14:02:13.472Z,38.20
2019-03-23T14:04:42.746Z,37.50
2019-03-23T14:07:12.181Z,36.60
2019-03-23T14:09:42.559Z,36.10
2019-03-23T14:12:11.103Z,36.70
2019-03-23T14:14:39.684Z,37.10
2019-03-23T14:17:08.128Z,37.70
2019-03-23T14:19:36.879Z,37.50
2019-03-23T14:22:05.431Z,36.50
2019-03-23T14:24:33.907Z,37.60
2019-03-23T14:27:02.638Z,38.40
2019-03-23T14:29:31.175Z,38.60
2019-03-23T14:31:59.560Z,38.70
2019-03-23T14:34:28.034Z,40.10
2019-03-23T14:36:56.606Z,40.60
2019-03-23T14:39:25.361Z,41.70
2019-03-23T14:42:04.760Z,42.10
2019-03-23T14:44:30.245Z,42.80
2019-03-23T14:46:59.040Z,43.10
2019-03-23T14:49:28.865Z,43.00
2019-03-23T14:51:57.953Z,43.00
2019-03-23T14:54:26.569Z,42.90
2019-03-23T14:56:55.361Z,43.30
2019-03-23T14:59:23.946Z,43.50
2019-03-23T15:01:52.647Z,43.70
2019-03-23T15:04:21.358Z,44.00
2019-03-23T15:06:50.275Z,44.50
2019-03-23T15:09:19.091Z,45.60
2019-03-23T15:11:48.288Z,45.20
2019-03-23T15:14:17.019Z,45.70
2019-03-23T15:16:45.644Z,46.00
2019-03-23T15:19:15.629Z,45.90
2019-03-23T15:21:44.188Z,46.20
2019-03-23T15:24:12.585Z,46.80
2019-03-23T15:26:41.071Z,46.70
2019-03-23T15:29:09.613Z,47.00
2019-03-23T15:31:38.595Z,47.70
2019-03-23T15:34:09.087Z,48.40
2019-03-23T15:36:37.648Z,48.90
2019-03-23T15:39:06.987Z,49.50
2019-03-23T15:41:35.392Z,50.30
2019-03-23T15:44:03.786Z,50.40
2019-03-23T15:46:32.606Z,50.80
2019-03-23T15:49:01.280Z,51.00
2019-03-23T15:51:29.763Z,51.00
2019-03-23T15:53:58.134Z,51.90
2019-03-23T15:56:26.894Z,52.10
2019-03-23T15:58:55.354Z,52.30
2019-03-23T16:01:24.688Z,52.20
2019-03-23T16:03:53.044Z,52.10
2019-03-23T16:06:21.518Z,51.80
2019-03-23T16:08:50.337Z,50.70
2019-03-23T16:11:18.758Z,50.60
2019-03-23T16:13:47.339Z,50.60
2019-03-23T16:16:15.893Z,50.50
2019-03-23T16:18:44.215Z,50.80
2019-03-23T16:21:12.715Z,51.10
2019-03-23T16:23:41.328Z,51.50
2019-03-23T16:26:09.703Z,51.90
2019-03-23T16:28:38.134Z,52.60
2019-03-23T16:31:06.553Z,52.50
2019-03-23T16:33:35.224Z,52.40
2019-03-23T16:36:03.710Z,52.90
2019-03-23T16:38:32.513Z,53.90
2019-03-23T16:41:01.355Z,54.20
2019-03-23T16:43:29.742Z,54.70
2019-03-23T16:45:58.151Z,54.50
2019-03-23T16:48:27.642Z,54.70
2019-03-23T16:50:56.488Z,55.00
2019-03-23T16:53:24.742Z,55.20
2019-03-23T16:55:53.384Z,55.50
2019-03-23T16:58:21.626Z,56.00
2019-03-23T17:00:52.119Z,56.00
2019-03-23T17:03:20.839Z,56.20
2019-03-23T17:05:49.469Z,56.50
2019-03-23T17:08:18.684Z,56.70
2019-03-23T17:10:47.054Z,56.90
2019-03-23T17:13:15.775Z,57.20
2019-03-23T17:15:44.868Z,58.00
2019-03-23T17:18:13.697Z,58.20
2019-03-23T17:20:42.172Z,58.70
2019-03-23T17:23:10.551Z,58.60
2019-03-23T17:25:39.355Z,59.40
2019-03-23T17:28:07.967Z,60.10
2019-03-23T17:30:36.328Z,60.20
2019-03-23T17:33:04.942Z,60.80
2019-03-23T17:35:33.544Z,61.30
2019-03-23T17:38:02.264Z,62.00
2019-03-23T17:40:31.608Z,62.30
2019-03-23T17:43:05.982Z,62.50
2019-03-23T17:45:30.775Z,62.60
2019-03-23T17:47:59.355Z,62.50
2019-03-23T17:50:27.915Z,63.00
2019-03-23T17:52:56.430Z,63.60
2019-03-23T17:55:24.951Z,63.70
2019-03-23T17:57:53.380Z,64.30
2019-03-23T18:00:22.329Z,64.60
2019-03-23T18:02:51.160Z,65.70
2019-03-23T18:05:19.890Z,65.40
2019-03-23T18:07:48.299Z,65.50
2019-03-23T18:10:16.906Z,65.90
2019-03-23T18:12:45.345Z,66.00
2019-03-23T18:15:13.833Z,66.30
2019-03-23T18:17:42.463Z,66.60
2019-03-23T18:20:12.319Z,67.00
2019-03-23T18:22:41.094Z,67.40
2019-03-23T18:25:09.846Z,67.70
2019-03-23T18:27:38.343Z,68.00
2019-03-23T18:30:17.359Z,68.10
2019-03-23T18:32:52.407Z,68.70
2019-03-23T18:35:27.136Z,68.70
2019-03-23T18:37:58.251Z,68.60
2019-03-23T18:40:26.775Z,68.60
2019-03-23T18:42:55.682Z,68.80
2019-03-23T18:45:24.432Z,68.70
2019-03-23T18:47:53.233Z,69.00
2019-03-23T18:50:21.798Z,69.30
2019-03-23T18:52:50.260Z,69.00
2019-03-23T18:55:18.992Z,69.00
2019-03-23T18:57:47.620Z,68.70
2019-03-23T19:00:25.907Z,68.90
2019-03-23T19:02:54.651Z,69.10
2019-03-23T19:05:23.342Z,69.30
2019-03-23T19:07:52.640Z,69.40
2019-03-23T19:10:21.687Z,69.60
2019-03-23T19:12:50.512Z,69.60
2019-03-23T19:15:18.996Z,69.00
2019-03-23T19:17:48.879Z,68.80
2019-03-23T19:20:17.402Z,68.40
2019-03-23T19:22:46.139Z,68.70
2019-03-23T19:25:18.156Z,68.50
2019-03-23T19:27:45.030Z,68.30
2019-03-23T19:30:14.896Z,68.30
2019-03-23T19:32:43.337Z,68.20
2019-03-23T19:35:12.064Z,68.40
2019-03-23T19:37:42.492Z,68.40
2019-03-23T19:40:11.384Z,68.60
2019-03-23T19:42:41.587Z,68.80
2019-03-23T19:45:10.477Z,69.10
2019-03-23T19:47:40.063Z,69.50
2019-03-23T19:50:09.084Z,69.70
2019-03-23T19:52:37.659Z,69.90
2019-03-23T19:55:07.460Z,69.90
2019-03-23T19:57:36.112Z,70.20
2019-03-23T20:00:06.909Z,70.30
2019-03-23T20:02:35.707Z,70.80
2019-03-23T20:05:04.528Z,70.80
2019-03-23T20:07:33.553Z,71.10
2019-03-23T20:10:02.678Z,71.30
2019-03-23T20:12:31.260Z,71.50
2019-03-23T20:15:00.318Z,71.60
2019-03-23T20:17:29.144Z,71.90
2019-03-23T20:19:57.825Z,72.00
2019-03-23T20:22:29.280Z,72.10
2019-03-23T20:24:57.969Z,72.40
2019-03-23T20:27:26.576Z,72.60
2019-03-23T20:29:55.193Z,72.70
2019-03-23T20:32:24.530Z,73.00
2019-03-23T20:34:53.093Z,73.30
2019-03-23T20:37:21.592Z,73.40
2019-03-23T20:39:50.495Z,73.60
2019-03-23T20:42:19.130Z,73.90
2019-03-23T20:44:47.815Z,74.20
2019-03-23T20:47:16.181Z,74.20
2019-03-23T20:49:44.763Z,74.40
2019-03-23T20:52:13.447Z,74.70
2019-03-23T20:54:41.996Z,75.90
2019-03-23T20:57:10.338Z,75.10
2019-03-23T20:59:39.120Z,75.30
2019-03-23T21:02:07.556Z,75.30
2019-03-23T21:04:36.127Z,75.60
2019-03-23T21:07:04.758Z,75.90
2019-03-23T21:09:33.286Z,76.00
2019-03-23T21:12:01.877Z,76.00
2019-03-23T21:14:30.532Z,76.20
2019-03-23T21:16:59.461Z,76.20
2019-03-23T21:19:28.228Z,76.50
2019-03-23T21:21:57.211Z,76.60
2019-03-23T21:24:25.740Z,76.50
2019-03-23T21:26:54.373Z,76.90
2019-03-23T21:29:22.925Z,76.70
2019-03-23T21:31:51.842Z,77.10
2019-03-23T21:34:20.682Z,77.40
2019-03-23T21:36:49.419Z,77.80
2019-03-23T21:39:17.815Z,77.80
2019-03-23T21:41:46.808Z,77.90
2019-03-23T21:44:15.663Z,78.20
2019-03-23T21:46:44.357Z,78.50
2019-03-23T21:49:12.820Z,78.70
2019-03-23T21:51:41.370Z,78.80
2019-03-23T21:54:10.066Z,78.90
2019-03-23T21:56:39.003Z,79.10
2019-03-23T21:59:11.938Z,79.10
2019-03-23T22:01:41.587Z,79.50
2019-03-23T22:04:10.068Z,80.80
2019-03-23T22:06:39.273Z,80.20
2019-03-23T22:09:08.006Z,80.30
2019-03-23T22:11:36.620Z,80.30
2019-03-23T22:14:05.509Z,80.60
2019-03-23T22:16:34.350Z,81.00
2019-03-23T22:19:06.038Z,80.90
2019-03-23T22:21:35.708Z,81.30
2019-03-23T22:24:04.216Z,81.60
2019-03-23T22:26:33.084Z,81.70
2019-03-23T22:29:01.606Z,82.10
2019-03-23T22:31:31.645Z,82.30
2019-03-23T22:34:00.731Z,82.60
2019-03-23T22:36:29.377Z,82.80
2019-03-23T22:38:58.374Z,83.00
2019-03-23T22:41:27.003Z,83.40
2019-03-23T22:43:55.583Z,83.40
2019-03-23T22:46:24.406Z,83.70
2019-03-23T22:48:53.101Z,83.90
2019-03-23T22:51:22.057Z,84.20
2019-03-23T22:53:50.779Z,84.40
2019-03-23T22:56:19.451Z,84.40
2019-03-23T22:58:47.983Z,84.50
2019-03-23T23:01:16.363Z,84.70
2019-03-23T23:03:45.023Z,84.70
2019-03-23T23:06:14.589Z,84.80
2019-03-23T23:08:43.107Z,85.10
2019-03-23T23:11:11.516Z,85.20
2019-03-23T23:13:39.988Z,85.60
2019-03-23T23:16:08.646Z,85.70
2019-03-23T23:18:37.130Z,85.60
2019-03-23T23:21:05.758Z,85.80
2019-03-23T23:23:39.431Z,86.00
2019-03-23T23:26:08.137Z,86.10
2019-03-23T23:28:36.942Z,85.80
2019-03-23T23:31:05.321Z,86.50
2019-03-23T23:33:33.858Z,86.50
2019-03-23T23:36:02.445Z,86.50
2019-03-23T23:38:30.914Z,86.70
2019-03-23T23:41:00.631Z,86.70
2019-03-23T23:43:29.018Z,86.90
2019-03-23T23:45:57.528Z,86.90
2019-03-23T23:48:26.137Z,86.80
2019-03-23T23:50:54.667Z,87.90
2019-03-23T23:53:23.191Z,86.90
2019-03-23T23:55:51.740Z,87.10
2019-03-23T23:58:20.233Z,87.20
